createdAt,value
2023-04-03T00:01:19.205Z,1.70
2023-04-03T00:03:46.679Z,1.50
2023-04-03T00:06:13.277Z,1.70
2023-04-03T00:08:41.309Z,1.40
2023-04-03T00:11:08.179Z,1.70
2023-04-03T00:13:37.898Z,1.70
2023-04-03T00:16:04.893Z,1.48
2023-04-03T00:18:32.207Z,1.38
2023-04-03T00:21:01.490Z,1.57
2023-04-03T00:23:28.070Z,1.60
2023-04-03T00:25:55.355Z,1.30
2023-04-03T00:28:22.174Z,1.23
2023-04-03T00:30:52.567Z,1.83
2023-04-03T00:33:22.741Z,1.40
2023-04-03T00:35:52.230Z,1.50
2023-04-03T00:38:19.282Z,1.88
2023-04-03T00:40:50.758Z,1.77
2023-04-03T00:43:27.553Z,2.13
2023-04-03T00:45:56.373Z,2.17
2023-04-03T00:48:27.398Z,2.42
2023-04-03T00:50:54.403Z,2.42
2023-04-03T00:53:26.834Z,2.42
2023-04-03T00:55:55.431Z,2.10
2023-04-03T00:58:34.146Z,2.83
2023-04-03T01:01:06.859Z,2.90
2023-04-03T01:03:33.868Z,2.95
2023-04-03T01:06:03.817Z,2.50
2023-04-03T01:08:31.226Z,2.33
2023-04-03T01:11:00.484Z,2.90
2023-04-03T01:13:32.165Z,2.67
2023-04-03T01:16:07.456Z,2.58
2023-04-03T01:18:35.987Z,3.00
2023-04-03T01:21:37.885Z,2.67
2023-04-03T01:24:43.633Z,2.40
2023-04-03T01:27:13.922Z,2.28
2023-04-03T01:29:41.521Z,2.63
2023-04-03T01:32:08.334Z,2.58
2023-04-03T01:34:35.020Z,2.15
2023-04-03T01:37:01.680Z,3.10
2023-04-03T01:39:28.311Z,1.75
2023-04-03T01:41:54.920Z,2.47
2023-04-03T01:44:23.882Z,2.47
2023-04-03T01:46:50.491Z,2.13
2023-04-03T01:49:17.061Z,2.20
2023-04-03T01:51:45.797Z,2.10
2023-04-03T01:54:12.387Z,2.30
2023-04-03T01:56:41.470Z,2.40
2023-04-03T01:59:12.948Z,1.73
2023-04-03T02:01:41.862Z,2.17
2023-04-03T02:04:13.028Z,1.90
2023-04-03T02:06:39.611Z,2.45
2023-04-03T02:09:06.686Z,2.13
2023-04-03T02:11:33.594Z,2.28
2023-04-03T02:14:00.326Z,1.93
2023-04-03T02:16:26.906Z,2.47
2023-04-03T02:18:58.247Z,2.40
2023-04-03T02:21:27.320Z,2.45
2023-04-03T02:23:53.834Z,2.42
2023-04-03T02:26:20.850Z,2.50
2023-04-03T02:28:47.644Z,2.80
2023-04-03T02:31:14.542Z,2.80
2023-04-03T02:33:45.599Z,2.15
2023-04-03T02:36:12.255Z,2.30
2023-04-03T02:38:38.887Z,1.90
2023-04-03T02:41:08.443Z,1.70
2023-04-03T02:43:35.557Z,2.30
2023-04-03T02:46:02.176Z,2.22
2023-04-03T02:48:31.992Z,1.98
2023-04-03T02:50:58.551Z,2.10
2023-04-03T02:53:25.414Z,1.88
2023-04-03T02:55:52.106Z,2.15
2023-04-03T02:58:18.664Z,2.72
2023-04-03T03:00:45.312Z,2.08
2023-04-03T03:03:11.874Z,2.27
2023-04-03T03:05:40.614Z,2.28
2023-04-03T03:08:07.187Z,2.25
2023-04-03T03:10:36.939Z,2.25
2023-04-03T03:13:03.756Z,2.10
2023-04-03T03:15:37.470Z,2.20
2023-04-03T03:18:11.202Z,2.10
2023-04-03T03:20:38.072Z,1.98
2023-04-03T03:23:04.865Z,1.95
2023-04-03T03:25:36.761Z,1.35
2023-04-03T03:28:03.423Z,2.13
2023-04-03T03:30:29.992Z,2.00
2023-04-03T03:32:56.585Z,1.98
2023-04-03T03:35:23.123Z,2.40
2023-04-03T03:37:54.261Z,2.20
2023-04-03T03:40:23.043Z,2.00
2023-04-03T03:42:49.601Z,2.30
2023-04-03T03:45:16.385Z,2.38
2023-04-03T03:47:42.996Z,2.13
2023-04-03T03:50:12.366Z,2.25
2023-04-03T03:52:41.531Z,2.53
2023-04-03T03:55:10.512Z,2.80
2023-04-03T03:57:37.361Z,2.22
2023-04-03T04:00:08.128Z,2.85
2023-04-03T04:02:42.180Z,2.90
2023-04-03T04:05:08.961Z,2.60
2023-04-03T04:07:38.487Z,2.70
2023-04-03T04:10:05.900Z,2.88
2023-04-03T04:12:36.645Z,3.20
2023-04-03T04:15:04.143Z,2.72
2023-04-03T04:17:30.849Z,2.93
2023-04-03T04:19:59.703Z,3.50
2023-04-03T04:22:26.252Z,2.95
2023-04-03T04:24:55.012Z,3.38
2023-04-03T04:27:23.668Z,3.05
2023-04-03T04:29:52.698Z,3.00
2023-04-03T04:32:19.311Z,3.03
2023-04-03T04:34:48.253Z,4.07
2023-04-03T04:37:14.838Z,3.97
2023-04-03T04:39:41.383Z,3.67
2023-04-03T04:42:15.023Z,3.93
2023-04-03T04:44:43.336Z,3.40
2023-04-03T04:47:09.890Z,3.97
2023-04-03T04:49:36.427Z,3.35
2023-04-03T04:52:02.940Z,3.67
2023-04-03T04:54:29.482Z,4.30
2023-04-03T04:56:56.139Z,4.07
2023-04-03T04:59:22.772Z,2.95
2023-04-03T05:01:51.633Z,3.83
2023-04-03T05:04:18.473Z,3.55
2023-04-03T05:06:45.072Z,3.80
2023-04-03T05:09:11.696Z,3.92
2023-04-03T05:11:40.839Z,3.55
2023-04-03T05:14:07.875Z,3.55
2023-04-03T05:16:39.091Z,3.17
2023-04-03T05:19:05.865Z,3.20
2023-04-03T05:21:33.586Z,3.33
2023-04-03T05:24:03.622Z,3.30
2023-04-03T05:26:32.090Z,3.10
2023-04-03T05:29:00.820Z,3.55
2023-04-03T05:31:30.397Z,3.53
2023-04-03T05:33:57.634Z,2.90
2023-04-03T05:36:24.275Z,3.78
2023-04-03T05:38:51.140Z,3.03
2023-04-03T05:41:21.808Z,3.20
2023-04-03T05:43:48.598Z,3.30
2023-04-03T05:46:22.335Z,3.83
2023-04-03T05:48:49.071Z,3.05
2023-04-03T05:51:22.712Z,2.95
2023-04-03T05:54:04.425Z,2.88
2023-04-03T05:56:35.696Z,2.63
2023-04-03T05:59:02.286Z,3.33
2023-04-03T06:01:29.068Z,2.67
2023-04-03T06:03:59.803Z,2.75
2023-04-03T06:06:26.768Z,3.50
2023-04-03T06:08:55.864Z,2.80
2023-04-03T06:11:23.325Z,3.30
2023-04-03T06:13:52.673Z,2.80
2023-04-03T06:16:19.877Z,2.90
2023-04-03T06:18:46.499Z,2.20
2023-04-03T06:21:13.124Z,3.10
2023-04-03T06:23:39.761Z,3.03
2023-04-03T06:26:06.601Z,2.60
2023-04-03T06:28:35.336Z,1.52
2023-04-03T06:31:02.037Z,2.30
2023-04-03T06:33:28.633Z,2.53
2023-04-03T06:35:59.176Z,1.70
2023-04-03T06:38:28.290Z,2.28
2023-04-03T06:40:57.088Z,1.30
2023-04-03T06:43:24.610Z,2.13
2023-04-03T06:45:51.751Z,1.73
2023-04-03T06:48:20.725Z,2.17
2023-04-03T06:50:52.130Z,2.30
2023-04-03T06:53:19.298Z,1.80
2023-04-03T06:55:48.877Z,1.77
2023-04-03T06:58:19.098Z,2.10
2023-04-03T07:00:49.073Z,1.80
2023-04-03T07:03:15.599Z,2.22
2023-04-03T07:05:45.465Z,2.40
2023-04-03T07:08:12.026Z,2.22
2023-04-03T07:10:43.667Z,1.80
2023-04-03T07:13:10.280Z,2.10
2023-04-03T07:15:39.345Z,1.95
2023-04-03T07:18:09.332Z,2.22
2023-04-03T07:20:36.408Z,1.60
2023-04-03T07:23:04.296Z,1.67
2023-04-03T07:25:35.802Z,1.85
2023-04-03T07:28:04.883Z,1.80
2023-04-03T07:30:31.561Z,2.15
2023-04-03T07:32:58.173Z,1.90
2023-04-03T07:35:27.511Z,1.90
2023-04-03T07:37:58.639Z,1.67
2023-04-03T07:40:26.454Z,1.50
2023-04-03T07:42:53.488Z,1.90
2023-04-03T07:45:20.299Z,1.92
2023-04-03T07:47:49.361Z,1.80
2023-04-03T07:50:16.882Z,2.22
2023-04-03T07:52:43.548Z,1.90
2023-04-03T07:55:10.231Z,1.60
2023-04-03T07:57:37.428Z,1.70
2023-04-03T08:00:09.906Z,1.80
2023-04-03T08:02:36.604Z,1.77
2023-04-03T08:05:03.572Z,1.30
2023-04-03T08:07:30.300Z,1.90
2023-04-03T08:09:59.021Z,1.38
2023-04-03T08:12:29.578Z,1.30
2023-04-03T08:14:56.731Z,1.70
2023-04-03T08:17:27.285Z,1.30
2023-04-03T08:19:53.903Z,1.25
2023-04-03T08:22:22.891Z,1.15
2023-04-03T08:24:59.541Z,1.47
2023-04-03T08:27:28.291Z,1.27
2023-04-03T08:29:55.641Z,1.40
2023-04-03T08:32:25.204Z,1.50
2023-04-03T08:34:54.067Z,1.70
2023-04-03T08:37:23.087Z,1.53
2023-04-03T08:39:51.741Z,1.70
2023-04-03T08:42:41.678Z,1.60
2023-04-03T08:45:20.392Z,1.50
2023-04-03T08:47:59.217Z,1.80
2023-04-03T08:50:39.050Z,1.40
2023-04-03T08:53:13.926Z,1.75
2023-04-03T08:55:51.107Z,1.58
2023-04-03T08:58:23.881Z,1.38
2023-04-03T09:01:18.201Z,0.98
2023-04-03T09:03:44.807Z,1.73
2023-04-03T09:06:16.257Z,1.90
2023-04-03T09:08:54.977Z,1.60
2023-04-03T09:11:34.215Z,1.70
2023-04-03T09:14:03.998Z,1.92
2023-04-03T09:16:52.857Z,1.67
2023-04-03T09:19:32.226Z,1.67
2023-04-03T09:22:04.824Z,1.60
2023-04-03T09:24:36.634Z,2.00
2023-04-03T09:27:11.142Z,1.95
2023-04-03T09:29:44.432Z,1.87
2023-04-03T09:32:30.120Z,1.77
2023-04-03T09:35:19.205Z,1.63
2023-04-03T09:37:53.013Z,1.60
2023-04-03T09:40:29.203Z,1.70
2023-04-03T09:43:01.933Z,1.53
2023-04-03T09:45:32.952Z,1.52
2023-04-03T09:48:15.490Z,1.60
2023-04-03T09:50:53.905Z,1.38
2023-04-03T09:53:52.927Z,1.60
2023-04-03T09:56:22.860Z,1.40
2023-04-03T09:59:02.285Z,1.00
2023-04-03T10:01:43.324Z,1.60
2023-04-03T10:04:13.989Z,1.58
2023-04-03T10:06:51.039Z,1.73
2023-04-03T10:09:25.309Z,1.67
2023-04-03T10:12:09.200Z,0.90
2023-04-03T10:14:43.285Z,1.50
2023-04-03T10:17:12.259Z,1.17
2023-04-03T10:19:42.269Z,1.65
2023-04-03T10:22:23.826Z,1.47
2023-04-03T10:24:59.790Z,1.40
2023-04-03T10:28:02.873Z,1.15
2023-04-03T10:30:35.439Z,1.60
2023-04-03T10:33:39.958Z,1.15
2023-04-03T10:36:32.848Z,1.30
2023-04-03T10:39:27.661Z,0.82
2023-04-03T10:42:15.840Z,1.10
2023-04-03T10:45:25.477Z,1.30
2023-04-03T10:48:11.386Z,1.08
2023-04-03T10:51:08.720Z,1.03
2023-04-03T10:54:11.411Z,1.20
2023-04-03T10:56:42.660Z,0.85
2023-04-03T10:59:23.092Z,0.93
2023-04-03T11:01:55.269Z,0.80
2023-04-03T11:04:24.755Z,1.00
2023-04-03T11:07:09.061Z,1.17
2023-04-03T11:09:39.253Z,1.05
2023-04-03T11:12:17.512Z,1.00
2023-04-03T11:14:44.684Z,1.50
2023-04-03T11:17:20.525Z,1.17
2023-04-03T11:19:55.277Z,0.95
2023-04-03T11:22:42.522Z,1.27
2023-04-03T11:25:12.402Z,1.20
2023-04-03T11:27:47.451Z,1.08
2023-04-03T11:30:25.811Z,1.10
2023-04-03T11:33:17.406Z,1.20
2023-04-03T11:35:47.457Z,1.00
2023-04-03T11:38:40.565Z,1.15
2023-04-03T11:41:11.646Z,1.60
2023-04-03T11:44:29.106Z,1.30
2023-04-03T11:47:03.943Z,1.10
2023-04-03T11:50:06.278Z,1.27
2023-04-03T11:52:44.396Z,1.30
2023-04-03T11:55:20.486Z,1.23
2023-04-03T11:58:15.603Z,1.03
2023-04-03T12:00:48.480Z,1.30
2023-04-03T12:03:26.662Z,1.27
2023-04-03T12:06:07.819Z,0.95
2023-04-03T12:08:34.350Z,1.48
2023-04-03T12:11:10.218Z,1.10
2023-04-03T12:13:55.426Z,1.83
2023-04-03T12:16:53.016Z,1.23
2023-04-03T12:22:10.986Z,1.00
2023-04-03T12:24:43.466Z,1.10
2023-04-03T12:27:25.685Z,1.05
2023-04-03T12:30:06.602Z,1.30
2023-04-03T12:33:05.702Z,1.20
2023-04-03T12:36:00.606Z,0.80
2023-04-03T12:38:55.485Z,1.20
2023-04-03T12:41:54.280Z,1.25
2023-04-03T12:44:41.621Z,0.98
2023-04-03T12:47:23.558Z,1.40
2023-04-03T12:49:54.039Z,1.00
2023-04-03T12:52:42.123Z,0.97
2023-04-03T12:55:18.292Z,1.13
2023-04-03T12:57:45.200Z,1.30
2023-04-03T13:00:36.398Z,1.15
2023-04-03T13:03:07.620Z,1.17
2023-04-03T13:05:37.421Z,1.27
2023-04-03T13:08:08.693Z,1.00
2023-04-03T13:10:54.922Z,1.15
2023-04-03T13:13:24.080Z,1.58
2023-04-03T13:15:51.526Z,1.30
2023-04-03T13:18:34.759Z,0.83
2023-04-03T13:21:26.835Z,1.35
2023-04-03T13:24:14.057Z,1.10
2023-04-03T13:26:43.144Z,1.48
2023-04-03T13:29:29.983Z,0.93
2023-04-03T13:31:58.963Z,1.10
2023-04-03T13:34:32.359Z,1.10
2023-04-03T13:37:04.226Z,1.20
2023-04-03T13:39:38.363Z,1.52
2023-04-03T13:42:26.095Z,1.40
2023-04-03T13:45:09.854Z,1.27
2023-04-03T13:47:44.294Z,1.27
2023-04-03T13:50:30.387Z,1.55
2023-04-03T13:53:04.337Z,1.70
2023-04-03T13:55:39.745Z,1.42
2023-04-03T13:58:11.755Z,1.30
2023-04-03T14:00:49.221Z,1.20
2023-04-03T14:03:27.184Z,1.50
2023-04-03T14:05:54.802Z,1.45
2023-04-03T14:08:26.704Z,1.60
2023-04-03T14:10:59.403Z,1.27
2023-04-03T14:13:26.136Z,1.75
2023-04-03T14:15:56.525Z,1.60
2023-04-03T14:18:24.996Z,1.13
2023-04-03T14:20:51.543Z,1.52
2023-04-03T14:23:22.733Z,1.30
2023-04-03T14:25:51.648Z,1.70
2023-04-03T14:28:21.874Z,1.25
2023-04-03T14:30:50.952Z,1.60
2023-04-03T14:33:20.750Z,1.48
2023-04-03T14:35:51.512Z,1.47
2023-04-03T14:38:29.207Z,1.48
2023-04-03T14:41:00.901Z,1.63
2023-04-03T14:43:35.543Z,1.45
2023-04-03T14:46:02.533Z,1.60
2023-04-03T14:48:34.977Z,1.60
2023-04-03T14:51:05.799Z,1.45
2023-04-03T14:53:38.723Z,1.40
2023-04-03T14:56:37.561Z,1.02
2023-04-03T14:59:16.399Z,1.70
2023-04-03T15:01:42.954Z,1.57
2023-04-03T15:04:21.767Z,1.58
2023-04-03T15:06:52.565Z,1.50
2023-04-03T15:09:21.560Z,1.58
2023-04-03T15:11:52.969Z,1.60
2023-04-03T15:14:29.807Z,1.23
2023-04-03T15:17:05.846Z,1.20
2023-04-03T15:19:39.245Z,1.33
2023-04-03T15:22:06.020Z,1.13
2023-04-03T15:24:39.957Z,0.98
2023-04-03T15:27:06.680Z,1.10
2023-04-03T15:29:33.356Z,1.27
2023-04-03T15:32:00.082Z,1.50
2023-04-03T15:34:29.013Z,1.40
2023-04-03T15:36:58.012Z,1.30
2023-04-03T15:39:30.877Z,1.37
2023-04-03T15:42:00.715Z,1.25
2023-04-03T15:44:27.332Z,1.45
2023-04-03T15:46:56.351Z,1.00
2023-04-03T15:49:25.620Z,1.60
2023-04-03T15:51:56.998Z,1.30
2023-04-03T15:54:25.073Z,1.38
2023-04-03T15:56:52.155Z,1.42
2023-04-03T15:59:19.203Z,1.63
2023-04-03T16:01:46.666Z,1.50
2023-04-03T16:04:19.452Z,1.37
2023-04-03T16:06:49.782Z,1.30
2023-04-03T16:09:19.141Z,1.38
2023-04-03T16:11:46.029Z,0.95
2023-04-03T16:14:14.655Z,1.10
2023-04-03T16:16:41.302Z,2.20
2023-04-03T16:19:10.965Z,1.20
2023-04-03T16:21:40.979Z,1.10
2023-04-03T16:24:07.719Z,1.23
2023-04-03T16:26:34.510Z,1.00
2023-04-03T16:29:05.983Z,1.10
2023-04-03T16:31:34.270Z,0.98
2023-04-03T16:34:01.766Z,1.30
2023-04-03T16:36:30.952Z,1.25
2023-04-03T16:38:57.604Z,1.27
2023-04-03T16:41:24.225Z,1.57
2023-04-03T16:43:53.773Z,1.10
2023-04-03T16:46:20.507Z,1.40
2023-04-03T16:48:49.339Z,1.15
2023-04-03T16:51:16.007Z,1.10
2023-04-03T16:53:43.229Z,1.20
2023-04-03T16:56:12.248Z,1.38
2023-04-03T16:58:38.792Z,1.20
2023-04-03T17:01:15.840Z,1.40
2023-04-03T17:03:44.718Z,1.50
2023-04-03T17:06:17.319Z,1.40
2023-04-03T17:08:46.011Z,1.30
2023-04-03T17:11:12.867Z,1.10
2023-04-03T17:13:44.265Z,1.70
2023-04-03T17:16:14.592Z,1.27
2023-04-03T17:18:41.710Z,1.53
2023-04-03T17:21:08.744Z,1.60
2023-04-03T17:23:40.033Z,1.52
2023-04-03T17:26:06.623Z,1.60
2023-04-03T17:28:36.874Z,1.50
2023-04-03T17:31:04.146Z,1.20
2023-04-03T17:33:33.082Z,1.38
2023-04-03T17:36:05.907Z,1.98
2023-04-03T17:38:33.994Z,1.52
2023-04-03T17:41:07.985Z,1.60
2023-04-03T17:43:37.067Z,1.30
2023-04-03T17:46:06.098Z,1.60
2023-04-03T17:48:34.280Z,1.50
2023-04-03T17:51:11.146Z,1.67
2023-04-03T17:53:40.026Z,1.40
2023-04-03T17:56:13.693Z,1.47
2023-04-03T17:58:42.649Z,1.30
2023-04-03T18:01:18.358Z,1.13
2023-04-03T18:03:48.616Z,1.45
2023-04-03T18:06:18.489Z,1.63
2023-04-03T18:08:51.598Z,1.43
2023-04-03T18:11:19.984Z,1.38
2023-04-03T18:13:49.015Z,1.50
2023-04-03T18:16:15.626Z,1.50
2023-04-03T18:18:42.243Z,1.60
2023-04-03T18:21:12.822Z,1.53
2023-04-03T18:23:47.156Z,1.45
2023-04-03T18:26:18.168Z,1.45
2023-04-03T18:28:53.824Z,0.95
2023-04-03T18:31:21.083Z,1.25
2023-04-03T18:33:53.891Z,1.27
2023-04-03T18:36:23.672Z,1.30
2023-04-03T18:38:53.099Z,1.50
2023-04-03T18:41:23.922Z,1.48
2023-04-03T18:43:50.843Z,1.60
2023-04-03T18:46:17.535Z,1.60
2023-04-03T18:48:46.027Z,1.58
2023-04-03T18:51:13.736Z,1.67
2023-04-03T18:56:15.075Z,1.60
2023-04-03T18:58:41.856Z,1.13
2023-04-03T19:01:11.959Z,1.50
2023-04-03T19:03:41.296Z,1.75
2023-04-03T19:06:08.141Z,1.35
2023-04-03T19:08:35.458Z,1.42
2023-04-03T19:11:08.876Z,1.80
2023-04-03T19:13:35.532Z,1.40
2023-04-03T19:16:08.322Z,1.67
2023-04-03T19:18:34.944Z,1.40
2023-04-03T19:21:01.554Z,1.40
2023-04-03T19:23:30.608Z,1.17
2023-04-03T19:26:02.389Z,1.73
2023-04-03T19:28:29.095Z,1.55
2023-04-03T19:30:57.852Z,1.30
2023-04-03T19:33:25.487Z,1.65
2023-04-03T19:35:54.627Z,1.53
2023-04-03T19:38:21.221Z,1.40
2023-04-03T19:40:47.824Z,1.50
2023-04-03T19:43:18.122Z,1.42
2023-04-03T19:45:46.507Z,1.25
2023-04-03T19:48:15.753Z,1.40
2023-04-03T19:50:47.315Z,1.60
2023-04-03T19:53:19.440Z,1.63
2023-04-03T19:55:48.916Z,1.40
2023-04-03T19:58:15.577Z,1.67
2023-04-03T20:00:44.247Z,1.40
2023-04-03T20:03:10.953Z,1.65
2023-04-03T20:05:39.786Z,1.30
2023-04-03T20:08:06.469Z,1.50
2023-04-03T20:10:33.039Z,2.00
2023-04-03T20:13:04.190Z,1.50
2023-04-03T20:15:40.207Z,1.20
2023-04-03T20:18:11.289Z,1.60
2023-04-03T20:20:42.026Z,1.60
2023-04-03T20:23:11.243Z,1.58
2023-04-03T20:25:54.089Z,1.40
2023-04-03T20:28:25.101Z,1.30
2023-04-03T20:30:54.500Z,1.63
2023-04-03T20:33:22.688Z,1.33
2023-04-03T20:35:53.612Z,1.50
2023-04-03T20:38:20.797Z,1.67
2023-04-03T20:40:47.387Z,1.63
2023-04-03T20:43:19.493Z,1.50
2023-04-03T20:45:46.137Z,1.40
2023-04-03T20:48:14.954Z,1.27
2023-04-03T20:50:42.161Z,1.50
2023-04-03T20:53:09.099Z,1.40
2023-04-03T20:55:41.369Z,1.17
2023-04-03T20:58:08.681Z,1.27
2023-04-03T21:00:37.611Z,1.33
2023-04-03T21:03:04.664Z,1.13
2023-04-03T21:05:34.677Z,1.17
2023-04-03T21:08:40.249Z,1.08
2023-04-03T21:11:47.395Z,0.70
2023-04-03T21:14:52.158Z,0.85
2023-04-03T21:17:18.984Z,0.90
2023-04-03T21:19:48.717Z,0.80
2023-04-03T21:22:20.467Z,0.82
2023-04-03T21:24:47.077Z,0.77
2023-04-03T21:27:13.696Z,1.27
2023-04-03T21:29:40.611Z,1.10
2023-04-03T21:32:09.510Z,1.00
2023-04-03T21:34:36.073Z,1.00
2023-04-03T21:37:06.211Z,0.95
2023-04-03T21:39:33.169Z,1.00
2023-04-03T21:42:02.453Z,1.10
2023-04-03T21:44:29.023Z,0.90
2023-04-03T21:46:55.769Z,1.30
2023-04-03T21:49:29.527Z,1.08
2023-04-03T21:51:58.291Z,1.10
2023-04-03T21:54:27.957Z,0.83
2023-04-03T21:56:54.530Z,0.60
2023-04-03T21:59:21.333Z,0.90
2023-04-03T22:01:50.560Z,0.98
2023-04-03T22:04:19.566Z,0.85
2023-04-03T22:06:48.824Z,1.00
2023-04-03T22:09:20.181Z,1.10
2023-04-03T22:11:46.784Z,0.90
2023-04-03T22:14:15.420Z,0.52
2023-04-03T22:16:42.101Z,0.85
2023-04-03T22:19:11.776Z,0.60
2023-04-03T22:21:38.345Z,0.75
2023-04-03T22:24:05.268Z,0.80
2023-04-03T22:26:31.861Z,0.70
2023-04-03T22:29:00.904Z,0.60
2023-04-03T22:31:27.851Z,0.60
2023-04-03T22:33:57.242Z,0.80
2023-04-03T22:36:23.830Z,0.70
2023-04-03T22:38:55.014Z,0.90
2023-04-03T22:41:22.178Z,0.50
2023-04-03T22:43:48.752Z,0.73
2023-04-03T22:46:17.637Z,0.70
2023-04-03T22:48:45.473Z,0.77
2023-04-03T22:51:12.948Z,0.68
2023-04-03T22:53:39.515Z,0.80
2023-04-03T22:56:13.929Z,0.47
2023-04-03T22:58:48.067Z,0.55
2023-04-03T23:01:15.085Z,0.60
2023-04-03T23:03:46.735Z,0.73
2023-04-03T23:06:13.532Z,0.60
2023-04-03T23:08:41.024Z,0.70
2023-04-03T23:11:09.296Z,0.75
2023-04-03T23:13:38.518Z,0.70
2023-04-03T23:16:05.414Z,0.65
2023-04-03T23:18:39.666Z,0.80
2023-04-03T23:21:07.921Z,0.60
2023-04-03T23:23:34.460Z,0.55
2023-04-03T23:26:02.640Z,0.70
2023-04-03T23:28:29.954Z,0.88
2023-04-03T23:31:03.367Z,0.73
2023-04-03T23:33:31.684Z,0.60
2023-04-03T23:36:02.081Z,0.80
2023-04-03T23:38:30.823Z,0.80
2023-04-03T23:41:02.200Z,0.63
2023-04-03T23:43:32.135Z,0.68
2023-04-03T23:46:01.929Z,0.70
2023-04-03T23:48:37.392Z,0.60
2023-04-03T23:51:03.998Z,0.60
2023-04-03T23:53:32.759Z,0.63
2023-04-03T23:56:02.146Z,0.70
2023-04-03T23:58:28.705Z,0.63
